Time,TemperatureF,DewpointF,PressureIn,WindDirection,WindDirectionDegrees,WindSpeedMPH,WindSpeedGustMPH,Humidity,HourlyPrecipIn,Conditions,Clouds,dailyrainin,SoftwareType,DateUTC
2013-07-06 00:00:00,70.5,66.1,30.09,SSE,161,0.0,0.0,86,0.00,,,0.00,Wunderground v.1.15,2013-07-06 05:00:00,
2013-07-06 00:05:00,70.4,66.0,30.09,SSE,161,0.0,0.0,86,0.00,,,0.00,Wunderground v.1.15,2013-07-06 05:05:00,
2013-07-06 00:10:00,70.3,65.9,30.09,SSE,161,0.0,0.0,86,0.00,,,0.00,Wunderground v.1.15,2013-07-06 05:10:00,
2013-07-06 00:20:00,70.2,65.8,30.09,SSE,161,0.0,0.0,86,0.00,,,0.00,Wunderground v.1.15,2013-07-06 05:20:00,
2013-07-06 00:25:00,70.1,65.7,30.09,SSE,161,0.0,0.0,86,0.00,,,0.00,Wunderground v.1.15,2013-07-06 05:25:00,
2013-07-06 00:35:00,70.0,66.0,30.08,SSE,161,0.0,0.0,87,0.00,,,0.00,Wunderground v.1.15,2013-07-06 05:35:00,
2013-07-06 00:40:00,69.9,65.9,30.08,SSE,161,0.0,0.0,87,0.00,,,0.00,Wunderground v.1.15,2013-07-06 05:40:00,
2013-07-06 00:50:00,69.7,65.7,30.08,SSE,161,0.0,0.0,87,0.00,,,0.00,Wunderground v.1.15,2013-07-06 05:50:00,
2013-07-06 00:55:00,69.6,65.6,30.08,SSE,161,0.0,0.0,87,0.00,,,0.00,Wunderground v.1.15,2013-07-06 05:55:00,
2013-07-06 01:05:00,69.5,65.8,30.08,SSE,161,0.0,0.0,88,0.00,,,0.00,Wunderground v.1.15,2013-07-06 06:05:00,
2013-07-06 01:15:00,69.3,65.6,30.08,SSE,161,0.0,0.0,88,0.00,,,0.00,Wunderground v.1.15,2013-07-06 06:15:00,
2013-07-06 01:25:00,69.2,65.5,30.08,SSE,161,0.0,0.0,88,0.00,,,0.00,Wunderground v.1.15,2013-07-06 06:25:00,
2013-07-06 01:35:00,69.0,65.3,30.08,SSE,161,0.0,0.0,88,0.00,,,0.00,Wunderground v.1.15,2013-07-06 06:35:00,
2013-07-06 01:45:00,68.9,65.2,30.07,SSE,161,0.0,0.0,88,0.00,,,0.00,Wunderground v.1.15,2013-07-06 06:45:00,
2013-07-06 01:55:00,68.7,65.0,30.08,SSE,161,0.0,0.0,88,0.00,,,0.00,Wunderground v.1.15,2013-07-06 06:55:00,
2013-07-06 02:00:00,68.6,64.9,30.08,SSE,161,0.0,0.0,88,0.00,,,0.00,Wunderground v.1.15,2013-07-06 07:00:00,
2013-07-06 02:10:00,68.5,64.8,30.07,SSE,161,0.0,0.0,88,0.00,,,0.00,Wunderground v.1.15,2013-07-06 07:10:00,
2013-07-06 02:15:00,68.5,65.1,30.07,SSE,161,0.0,0.0,89,0.00,,,0.00,Wunderground v.1.15,2013-07-06 07:15:00,
2013-07-06 02:25:00,68.4,65.0,30.07,SSE,161,0.0,0.0,89,0.00,,,0.00,Wunderground v.1.15,2013-07-06 07:25:00,
2013-07-06 02:30:00,68.3,64.9,30.08,SSE,161,0.0,0.0,89,0.00,,,0.00,Wunderground v.1.15,2013-07-06 07:30:00,
2013-07-06 02:40:00,68.0,64.3,30.08,SSE,161,0.0,0.0,88,0.00,,,0.00,Wunderground v.1.15,2013-07-06 07:40:00,
2013-07-06 02:50:00,67.7,64.0,30.08,SSE,161,0.0,0.0,88,0.00,,,0.00,Wunderground v.1.15,2013-07-06 07:50:00,
2013-07-06 02:55:00,67.7,64.3,30.08,SSE,161,0.0,0.0,89,0.00,,,0.00,Wunderground v.1.15,2013-07-06 07:55:00,
2013-07-06 03:05:00,67.5,64.1,30.08,SSE,161,0.0,0.0,89,0.00,,,0.00,Wunderground v.1.15,2013-07-06 08:05:00,
2013-07-06 03:10:00,67.5,64.1,30.08,SSE,161,0.0,0.0,89,0.00,,,0.00,Wunderground v.1.15,2013-07-06 08:10:00,
2013-07-06 03:20:00,67.7,64.7,30.08,SSE,161,0.0,0.0,90,0.00,,,0.00,Wunderground v.1.15,2013-07-06 08:20:00,
2013-07-06 03:30:00,67.7,64.7,30.08,SSE,161,0.0,0.0,90,0.00,,,0.00,Wunderground v.1.15,2013-07-06 08:30:00,
2013-07-06 03:35:00,67.7,64.7,30.08,SSE,161,0.0,0.0,90,0.00,,,0.00,Wunderground v.1.15,2013-07-06 08:35:00,
2013-07-06 03:40:00,67.7,64.7,30.08,SSE,161,0.0,0.0,90,0.00,,,0.00,Wunderground v.1.15,2013-07-06 08:40:00,
2013-07-06 03:50:00,67.7,64.7,30.08,SSE,161,0.0,0.0,90,0.00,,,0.00,Wunderground v.1.15,2013-07-06 08:50:00,
2013-07-06 04:00:00,67.6,64.6,30.07,SSE,161,0.0,0.0,90,0.00,,,0.00,Wunderground v.1.15,2013-07-06 09:00:00,
2013-07-06 04:10:00,67.6,64.6,30.07,SSE,161,0.0,0.0,90,0.00,,,0.00,Wunderground v.1.15,2013-07-06 09:10:00,
2013-07-06 04:20:00,67.7,65.0,30.07,SSE,161,0.0,0.0,91,0.00,,,0.00,Wunderground v.1.15,2013-07-06 09:20:00,
2013-07-06 04:25:00,67.7,65.0,30.07,SSE,161,0.0,0.0,91,0.00,,,0.00,Wunderground v.1.15,2013-07-06 09:25:00,
2013-07-06 04:30:00,67.7,64.7,30.07,SSE,161,0.0,0.0,90,0.00,,,0.00,Wunderground v.1.15,2013-07-06 09:30:00,
2013-07-06 04:40:00,67.7,64.7,30.07,SSE,161,0.0,0.0,90,0.00,,,0.00,Wunderground v.1.15,2013-07-06 09:40:00,
2013-07-06 04:45:00,67.6,64.6,30.07,SSE,161,0.0,0.0,90,0.00,,,0.00,Wunderground v.1.15,2013-07-06 09:45:00,
2013-07-06 04:55:00,67.5,64.5,30.08,SSE,161,0.0,0.0,90,0.00,,,0.00,Wunderground v.1.15,2013-07-06 09:55:00,
2013-07-06 05:00:00,67.5,64.5,30.08,SSE,161,0.0,0.0,90,0.00,,,0.00,Wunderground v.1.15,2013-07-06 10:00:00,
2013-07-06 05:10:00,67.3,64.3,30.08,SSE,161,0.0,0.0,90,0.00,,,0.00,Wunderground v.1.15,2013-07-06 10:10:00,
2013-07-06 05:20:00,67.2,64.2,30.08,SSE,161,0.0,0.0,90,0.00,,,0.00,Wunderground v.1.15,2013-07-06 10:20:00,
2013-07-06 05:30:00,67.2,64.5,30.09,SSE,161,0.0,0.0,91,0.00,,,0.00,Wunderground v.1.15,2013-07-06 10:30:00,
2013-07-06 05:40:00,67.2,64.5,30.09,SSE,161,0.0,0.0,91,0.00,,,0.00,Wunderground v.1.15,2013-07-06 10:40:00,
2013-07-06 05:50:00,67.4,64.7,30.09,SSE,161,0.0,0.0,91,0.00,,,0.00,Wunderground v.1.15,2013-07-06 10:50:00,
2013-07-06 06:00:00,67.4,64.7,30.09,SSE,161,0.0,0.0,91,0.00,,,0.00,Wunderground v.1.15,2013-07-06 11:00:00,
2013-07-06 06:10:00,67.5,64.8,30.09,SSE,161,0.0,0.0,91,0.00,,,0.00,Wunderground v.1.15,2013-07-06 11:10:00,
2013-07-06 06:15:00,67.6,64.9,30.09,SSE,161,0.0,0.0,91,0.00,,,0.00,Wunderground v.1.15,2013-07-06 11:15:00,
2013-07-06 06:25:00,67.7,65.0,30.09,SSE,161,0.0,0.0,91,0.00,,,0.00,Wunderground v.1.15,2013-07-06 11:25:00,
2013-07-06 06:30:00,67.8,65.1,30.08,SSE,161,0.0,0.0,91,0.00,,,0.00,Wunderground v.1.15,2013-07-06 11:30:00,
2013-07-06 06:40:00,68.0,65.3,30.08,SSE,161,0.0,0.0,91,0.00,,,0.00,Wunderground v.1.15,2013-07-06 11:40:00,
2013-07-06 06:50:00,68.4,65.7,30.09,SSE,161,0.0,0.0,91,0.00,,,0.00,Wunderground v.1.15,2013-07-06 11:50:00,
2013-07-06 07:00:00,68.8,66.4,30.09,SSE,161,0.0,0.0,92,0.00,,,0.00,Wunderground v.1.15,2013-07-06 12:00:00,
2013-07-06 07:10:00,69.2,66.8,30.08,SSE,161,0.0,0.0,92,0.00,,,0.00,Wunderground v.1.15,2013-07-06 12:10:00,
2013-07-06 07:20:00,69.8,67.4,30.09,SSW,198,3.0,4.0,92,0.00,,,0.00,Wunderground v.1.15,2013-07-06 12:20:00,
2013-07-06 07:30:00,70.0,67.3,30.09,South,191,3.0,3.0,91,0.00,,,0.00,Wunderground v.1.15,2013-07-06 12:30:00,
2013-07-06 07:40:00,70.1,67.0,30.09,South,176,2.0,2.0,90,0.00,,,0.00,Wunderground v.1.15,2013-07-06 12:40:00,
2013-07-06 07:50:00,70.4,67.3,30.09,SSE,159,2.0,2.0,90,0.00,,,0.00,Wunderground v.1.15,2013-07-06 12:50:00,
2013-07-06 08:00:00,70.8,67.7,30.10,SSE,159,1.0,4.0,90,0.00,,,0.00,Wunderground v.1.15,2013-07-06 13:00:00,
2013-07-06 08:10:00,71.0,67.6,30.10,South,173,2.0,4.0,89,0.00,,,0.00,Wunderground v.1.15,2013-07-06 13:10:00,
2013-07-06 08:15:00,71.1,67.7,30.10,South,185,2.0,4.0,89,0.00,,,0.00,Wunderground v.1.15,2013-07-06 13:15:00,
2013-07-06 08:25:00,71.2,67.8,30.10,South,182,2.0,5.0,89,0.00,,,0.00,Wunderground v.1.15,2013-07-06 13:25:00,
2013-07-06 08:35:00,71.2,67.5,30.10,South,180,1.0,3.0,88,0.00,,,0.00,Wunderground v.1.15,2013-07-06 13:35:00,
2013-07-06 08:45:00,71.3,67.6,30.10,South,186,3.0,5.0,88,0.00,,,0.00,Wunderground v.1.15,2013-07-06 13:45:00,
2013-07-06 08:50:00,71.3,67.6,30.10,South,187,3.0,5.0,88,0.00,,,0.00,Wunderground v.1.15,2013-07-06 13:50:00,
2013-07-06 09:00:00,71.6,68.2,30.10,South,189,4.0,4.0,89,0.00,,,0.00,Wunderground v.1.15,2013-07-06 14:00:00,
2013-07-06 09:10:00,71.8,68.1,30.10,SSW,205,3.0,4.0,88,0.00,,,0.00,Wunderground v.1.15,2013-07-06 14:10:00,
2013-07-06 09:20:00,72.0,67.9,30.09,SSW,207,4.0,4.0,87,0.00,,,0.00,Wunderground v.1.15,2013-07-06 14:20:00,
2013-07-06 09:30:00,72.2,68.1,30.09,SSW,207,3.0,6.0,87,0.00,,,0.00,Wunderground v.1.15,2013-07-06 14:30:00,
2013-07-06 09:40:00,72.3,68.2,30.09,SSW,205,3.0,4.0,87,0.00,,,0.00,Wunderground v.1.15,2013-07-06 14:40:00,
2013-07-06 09:50:00,72.4,68.0,30.09,SSW,204,1.0,1.0,86,0.00,,,0.00,Wunderground v.1.15,2013-07-06 14:50:00,
2013-07-06 10:00:00,72.5,68.1,30.10,SSW,195,2.0,2.0,86,0.00,,,0.00,Wunderground v.1.15,2013-07-06 15:00:00,
2013-07-06 10:05:00,72.6,68.2,30.10,SSW,194,2.0,2.0,86,0.00,,,0.00,Wunderground v.1.15,2013-07-06 15:05:00,
2013-07-06 10:15:00,72.6,67.8,30.10,SSW,205,3.0,5.0,85,0.00,,,0.00,Wunderground v.1.15,2013-07-06 15:15:00,
2013-07-06 10:20:00,72.7,67.9,30.10,SSW,206,3.0,5.0,85,0.00,,,0.00,Wunderground v.1.15,2013-07-06 15:20:00,
2013-07-06 10:25:00,72.9,68.5,30.10,SSW,205,3.0,5.0,86,0.00,,,0.00,Wunderground v.1.15,2013-07-06 15:25:00,
2013-07-06 10:35:00,73.5,68.4,30.09,SSW,211,4.0,4.0,84,0.00,,,0.00,Wunderground v.1.15,2013-07-06 15:35:00,
2013-07-06 10:45:00,74.0,68.2,30.09,SSW,211,3.0,4.0,82,0.00,,,0.00,Wunderground v.1.15,2013-07-06 15:45:00,
2013-07-06 10:50:00,74.4,68.9,30.09,SSW,211,1.0,3.0,83,0.00,,,0.00,Wunderground v.1.15,2013-07-06 15:50:00,
2013-07-06 11:00:00,75.0,69.1,30.09,SSW,212,2.0,5.0,82,0.00,,,0.00,Wunderground v.1.15,2013-07-06 16:00:00,
2013-07-06 11:05:00,75.3,69.1,30.09,SSW,212,3.0,5.0,81,0.00,,,0.00,Wunderground v.1.15,2013-07-06 16:05:00,
2013-07-06 11:15:00,75.7,69.5,30.09,SW,234,3.0,5.0,81,0.00,,,0.00,Wunderground v.1.15,2013-07-06 16:15:00,
2013-07-06 11:20:00,75.9,68.9,30.09,SW,234,4.0,4.0,79,0.00,,,0.00,Wunderground v.1.15,2013-07-06 16:20:00,
2013-07-06 11:30:00,76.3,69.3,30.09,SW,228,3.0,3.0,79,0.00,,,0.00,Wunderground v.1.15,2013-07-06 16:30:00,
2013-07-06 11:40:00,77.0,69.2,30.09,SW,228,2.0,2.0,77,0.00,,,0.00,Wunderground v.1.15,2013-07-06 16:40:00,
2013-07-06 11:45:00,77.4,69.2,30.08,SW,228,1.0,2.0,76,0.00,,,0.00,Wunderground v.1.15,2013-07-06 16:45:00,
2013-07-06 11:50:00,77.8,68.8,30.08,SW,228,0.0,3.0,74,0.00,,,0.00,Wunderground v.1.15,2013-07-06 16:50:00,
2013-07-06 12:00:00,78.8,69.0,30.08,SW,227,0.0,0.0,72,0.00,,,0.00,Wunderground v.1.15,2013-07-06 17:00:00,
2013-07-06 12:05:00,79.1,68.5,30.08,SW,227,0.0,0.0,70,0.00,,,0.00,Wunderground v.1.15,2013-07-06 17:05:00,
2013-07-06 12:20:00,80.0,69.3,30.08,SW,227,2.0,2.0,70,0.00,,,0.00,Wunderground v.1.15,2013-07-06 17:20:00,
2013-07-06 12:40:00,80.5,68.5,30.07,SW,227,0.0,0.0,67,0.00,,,0.00,Wunderground v.1.15,2013-07-06 17:40:00,
2013-07-06 12:45:00,80.7,69.2,30.07,SW,227,0.0,3.0,68,0.00,,,0.00,Wunderground v.1.15,2013-07-06 17:45:00,
2013-07-06 12:55:00,81.0,67.7,30.07,SW,227,1.0,2.0,64,0.00,,,0.00,Wunderground v.1.15,2013-07-06 17:55:00,
2013-07-06 13:05:00,80.9,67.6,30.07,SW,227,0.0,0.0,64,0.00,,,0.00,Wunderground v.1.15,2013-07-06 18:05:00,
2013-07-06 13:10:00,80.7,67.8,30.07,SW,227,0.0,0.0,65,0.00,,,0.00,Wunderground v.1.15,2013-07-06 18:10:00,
2013-07-06 13:20:00,80.2,68.2,30.07,SW,224,0.0,0.0,67,0.00,,,0.00,Wunderground v.1.15,2013-07-06 18:20:00,
2013-07-06 13:25:00,79.9,68.8,30.07,SSW,213,0.0,0.0,69,0.00,,,0.00,Wunderground v.1.15,2013-07-06 18:25:00,
2013-07-06 13:40:00,78.9,68.3,30.06,SSE,161,2.0,2.0,70,0.00,,,0.00,Wunderground v.1.15,2013-07-06 18:40:00,
2013-07-06 13:45:00,78.8,68.6,30.06,SSE,167,2.0,2.0,71,0.00,,,0.00,Wunderground v.1.15,2013-07-06 18:45:00,
2013-07-06 13:50:00,78.6,68.8,30.06,SSE,152,3.0,4.0,72,0.00,,,0.00,Wunderground v.1.15,2013-07-06 18:50:00,
2013-07-06 14:00:00,78.1,68.3,30.07,SSE,161,2.0,5.0,72,0.00,,,0.00,Wunderground v.1.15,2013-07-06 19:00:00,
2013-07-06 14:10:00,77.7,68.7,30.07,South,188,4.0,4.0,74,0.00,,,0.00,Wunderground v.1.15,2013-07-06 19:10:00,
2013-07-06 14:20:00,77.7,68.7,30.07,South,173,3.0,5.0,74,0.00,,,0.00,Wunderground v.1.15,2013-07-06 19:20:00,
2013-07-06 14:25:00,77.8,68.8,30.07,SSE,153,3.0,5.0,74,0.00,,,0.00,Wunderground v.1.15,2013-07-06 19:25:00,
2013-07-06 14:30:00,77.9,69.3,30.07,SSE,160,2.0,5.0,75,0.00,,,0.00,Wunderground v.1.15,2013-07-06 19:30:00,
2013-07-06 14:35:00,77.9,68.9,30.07,SSE,163,1.0,5.0,74,0.00,,,0.00,Wunderground v.1.15,2013-07-06 19:35:00,
2013-07-06 14:45:00,77.7,68.7,30.07,SSE,163,1.0,2.0,74,0.00,,,0.00,Wunderground v.1.15,2013-07-06 19:45:00,
2013-07-06 14:50:00,77.6,68.7,30.06,SSE,163,1.0,2.0,74,0.00,,,0.00,Wunderground v.1.15,2013-07-06 19:50:00,
2013-07-06 14:56:00,77.3,68.0,30.06,SSE,154,2.0,4.0,73,0.00,,,0.00,Wunderground v.1.15,2013-07-06 19:56:00,
2013-07-06 15:05:00,77.0,68.5,30.06,SSE,157,1.0,2.0,75,0.00,,,0.00,Wunderground v.1.15,2013-07-06 20:05:00,
2013-07-06 15:10:00,76.9,68.8,30.06,SSE,157,1.0,1.0,76,0.00,,,0.00,Wunderground v.1.15,2013-07-06 20:10:00,
2013-07-06 15:21:00,76.8,68.7,30.06,SSE,156,1.0,1.0,76,0.00,,,0.00,Wunderground v.1.15,2013-07-06 20:21:00,
2013-07-06 15:30:00,76.9,69.1,30.06,SSE,155,1.0,2.0,77,0.00,,,0.00,Wunderground v.1.15,2013-07-06 20:30:00,
2013-07-06 15:40:00,76.8,69.4,30.06,SSE,150,2.0,4.0,78,0.00,,,0.00,Wunderground v.1.15,2013-07-06 20:40:00,
2013-07-06 15:55:00,76.1,69.5,30.05,SE,146,2.0,4.0,80,0.00,,,0.00,Wunderground v.1.15,2013-07-06 20:55:00,
2013-07-06 16:00:00,75.9,68.9,30.05,SE,137,3.0,3.0,79,0.00,,,0.00,Wunderground v.1.15,2013-07-06 21:00:00,
2013-07-06 16:05:00,75.7,69.1,30.05,SE,138,2.0,3.0,80,0.00,,,0.00,Wunderground v.1.15,2013-07-06 21:05:00,
2013-07-06 16:10:00,75.6,69.0,30.05,SE,134,2.0,3.0,80,0.00,,,0.00,Wunderground v.1.15,2013-07-06 21:10:00,
2013-07-06 16:15:00,75.4,68.8,30.05,SE,130,2.0,3.0,80,0.00,,,0.00,Wunderground v.1.15,2013-07-06 21:15:00,
2013-07-06 16:25:00,75.1,68.9,30.06,SE,130,2.0,2.0,81,0.00,,,0.00,Wunderground v.1.15,2013-07-06 21:25:00,
2013-07-06 16:30:00,74.9,68.7,30.05,SE,130,2.0,3.0,81,0.00,,,0.00,Wunderground v.1.15,2013-07-06 21:30:00,
2013-07-06 16:40:00,74.7,68.8,30.05,ESE,119,2.0,5.0,82,0.00,,,0.00,Wunderground v.1.15,2013-07-06 21:40:00,
2013-07-06 16:50:00,74.5,68.6,30.05,ESE,116,1.0,1.0,82,0.00,,,0.00,Wunderground v.1.15,2013-07-06 21:50:00,
2013-07-06 17:20:00,74.8,68.6,30.04,ESE,117,1.0,4.0,81,0.00,,,0.00,Wunderground v.1.15,2013-07-06 22:20:00,
2013-07-06 17:30:00,74.5,68.3,30.04,ESE,117,2.0,2.0,81,0.00,,,0.00,Wunderground v.1.15,2013-07-06 22:30:00,
2013-07-06 17:40:00,74.2,68.0,30.04,SE,126,1.0,1.0,81,0.00,,,0.00,Wunderground v.1.15,2013-07-06 22:40:00,
2013-07-06 17:45:00,74.2,68.3,30.04,SE,131,1.0,1.0,82,0.00,,,0.00,Wunderground v.1.15,2013-07-06 22:45:00,
2013-07-06 18:00:00,74.2,68.0,30.03,ESE,115,1.0,4.0,81,0.00,,,0.00,Wunderground v.1.15,2013-07-06 23:00:00,
2013-07-06 18:05:00,74.2,68.0,30.03,ESE,118,2.0,4.0,81,0.00,,,0.00,Wunderground v.1.15,2013-07-06 23:05:00,
2013-07-06 18:10:00,74.2,68.0,30.04,SE,132,3.0,5.0,81,0.00,,,0.00,Wunderground v.1.15,2013-07-06 23:10:00,
2013-07-06 18:15:00,74.2,68.0,30.04,SSE,149,3.0,5.0,81,0.00,,,0.00,Wunderground v.1.15,2013-07-06 23:15:00,
2013-07-06 18:25:00,74.2,68.3,30.04,SSE,148,2.0,6.0,82,0.00,,,0.00,Wunderground v.1.15,2013-07-06 23:25:00,
2013-07-06 18:30:00,74.2,68.0,30.03,SSE,148,2.0,3.0,81,0.00,,,0.00,Wunderground v.1.15,2013-07-06 23:30:00,
2013-07-06 18:35:00,74.2,68.0,30.03,SE,143,4.0,4.0,81,0.00,,,0.00,Wunderground v.1.15,2013-07-06 23:35:00,
2013-07-06 18:45:00,74.0,68.2,30.03,SSE,157,3.0,4.0,82,0.00,,,0.00,Wunderground v.1.15,2013-07-06 23:45:00,
2013-07-06 19:05:00,73.6,67.8,30.03,SSE,150,4.0,5.0,82,0.00,,,0.00,Wunderground v.1.15,2013-07-07 00:05:00,
2013-07-06 19:15:00,73.4,67.6,30.03,SSE,150,3.0,5.0,82,0.00,,,0.00,Wunderground v.1.15,2013-07-07 00:15:00,
2013-07-06 19:25:00,73.3,67.5,30.03,SSE,152,0.0,2.0,82,0.00,,,0.00,Wunderground v.1.15,2013-07-07 00:25:00,
2013-07-06 19:30:00,73.2,67.4,30.03,SSE,152,0.0,0.0,82,0.00,,,0.00,Wunderground v.1.15,2013-07-07 00:30:00,
2013-07-06 19:40:00,72.9,67.1,30.03,SSE,152,0.0,0.0,82,0.00,,,0.00,Wunderground v.1.15,2013-07-07 00:40:00,
2013-07-06 19:45:00,72.7,66.9,30.03,SSE,152,0.0,0.0,82,0.00,,,0.00,Wunderground v.1.15,2013-07-07 00:45:00,
2013-07-06 20:00:00,72.1,66.6,30.03,SSE,152,0.0,0.0,83,0.00,,,0.00,Wunderground v.1.15,2013-07-07 01:00:00,
2013-07-06 20:05:00,71.8,66.4,30.04,SSE,152,0.0,0.0,83,0.00,,,0.00,Wunderground v.1.15,2013-07-07 01:05:00,
2013-07-06 20:15:00,71.4,66.0,30.04,SSE,152,0.0,0.0,83,0.00,,,0.00,Wunderground v.1.15,2013-07-07 01:15:00,
2013-07-06 20:20:00,71.2,65.8,30.03,SSE,152,0.0,0.0,83,0.00,,,0.00,Wunderground v.1.15,2013-07-07 01:20:00,
2013-07-06 20:30:00,70.9,65.8,30.04,SSE,152,0.0,0.0,84,0.00,,,0.00,Wunderground v.1.15,2013-07-07 01:30:00,
2013-07-06 20:45:00,70.5,65.4,30.05,SSE,151,0.0,1.0,84,0.00,,,0.00,Wunderground v.1.15,2013-07-07 01:45:00,
2013-07-06 20:50:00,70.3,65.2,30.05,SSE,151,0.0,0.0,84,0.00,,,0.00,Wunderground v.1.15,2013-07-07 01:50:00,
2013-07-06 21:05:00,69.8,65.1,30.05,SSE,151,0.0,0.0,85,0.00,,,0.00,Wunderground v.1.15,2013-07-07 02:05:00,
2013-07-06 21:10:00,69.7,65.0,30.06,SSE,151,0.0,0.0,85,0.00,,,0.00,Wunderground v.1.15,2013-07-07 02:10:00,
2013-07-06 21:20:00,69.4,64.7,30.06,SSE,151,0.0,0.0,85,0.00,,,0.00,Wunderground v.1.15,2013-07-07 02:20:00,
2013-07-06 21:25:00,69.2,64.5,30.06,SSE,151,0.0,0.0,85,0.00,,,0.00,Wunderground v.1.15,2013-07-07 02:25:00,
2013-07-06 21:30:00,69.0,64.6,30.07,SSE,151,0.0,0.0,86,0.00,,,0.00,Wunderground v.1.15,2013-07-07 02:30:00,
2013-07-06 21:35:00,68.8,64.4,30.07,SSE,151,0.0,0.0,86,0.00,,,0.00,Wunderground v.1.15,2013-07-07 02:35:00,
2013-07-06 21:45:00,68.5,64.1,30.07,SSE,151,0.0,0.0,86,0.00,,,0.00,Wunderground v.1.15,2013-07-07 02:45:00,
2013-07-06 21:55:00,68.2,64.2,30.07,SSE,151,0.0,0.0,87,0.00,,,0.00,Wunderground v.1.15,2013-07-07 02:55:00,
2013-07-06 22:00:00,68.1,64.4,30.07,SSE,151,0.0,0.0,88,0.00,,,0.00,Wunderground v.1.15,2013-07-07 03:00:00,
2013-07-06 22:10:00,68.0,64.3,30.07,SSE,151,0.0,0.0,88,0.00,,,0.00,Wunderground v.1.15,2013-07-07 03:10:00,
2013-07-06 22:15:00,67.9,64.2,30.07,SSE,151,0.0,0.0,88,0.00,,,0.00,Wunderground v.1.15,2013-07-07 03:15:00,
2013-07-06 22:25:00,67.9,64.2,30.07,SSE,151,1.0,1.0,88,0.00,,,0.00,Wunderground v.1.15,2013-07-07 03:25:00,
2013-07-06 22:35:00,67.7,64.0,30.07,SSE,151,2.0,5.0,88,0.00,,,0.00,Wunderground v.1.15,2013-07-07 03:35:00,
2013-07-06 22:40:00,67.7,64.3,30.07,SSE,152,3.0,3.0,89,0.00,,,0.00,Wunderground v.1.15,2013-07-07 03:40:00,
2013-07-06 22:45:00,67.7,64.3,30.07,SSE,149,3.0,3.0,89,0.00,,,0.00,Wunderground v.1.15,2013-07-07 03:45:00,
2013-07-06 22:55:00,67.7,64.3,30.07,SSE,150,1.0,2.0,89,0.00,,,0.00,Wunderground v.1.15,2013-07-07 03:55:00,
2013-07-06 23:00:00,67.7,64.3,30.07,SSE,150,2.0,2.0,89,0.00,,,0.00,Wunderground v.1.15,2013-07-07 04:00:00,
2013-07-06 23:05:00,67.7,64.3,30.07,SSE,150,2.0,2.0,89,0.00,,,0.00,Wunderground v.1.15,2013-07-07 04:05:00,
2013-07-06 23:10:00,67.6,64.2,30.07,SSE,152,2.0,2.0,89,0.00,,,0.00,Wunderground v.1.15,2013-07-07 04:10:00,
2013-07-06 23:15:00,67.5,64.1,30.07,SSE,152,2.0,2.0,89,0.00,,,0.00,Wunderground v.1.15,2013-07-07 04:15:00,
2013-07-06 23:20:00,67.4,64.0,30.07,SSE,152,1.0,1.0,89,0.00,,,0.00,Wunderground v.1.15,2013-07-07 04:20:00,
2013-07-06 23:25:00,67.4,64.0,30.07,SSE,152,0.0,1.0,89,0.00,,,0.00,Wunderground v.1.15,2013-07-07 04:25:00,
2013-07-06 23:30:00,67.3,63.9,30.07,SSE,152,0.0,0.0,89,0.00,,,0.00,Wunderground v.1.15,2013-07-07 04:30:00,
2013-07-06 23:35:00,67.2,63.8,30.07,SSE,152,0.0,4.0,89,0.00,,,0.00,Wunderground v.1.15,2013-07-07 04:35:00,
2013-07-06 23:45:00,67.0,63.6,30.07,SSE,152,1.0,1.0,89,0.00,,,0.00,Wunderground v.1.15,2013-07-07 04:45:00,
2013-07-06 23:50:00,67.0,63.6,30.07,SSE,152,0.0,0.0,89,0.00,,,0.00,Wunderground v.1.15,2013-07-07 04:50:00,